Flight Track Log - Related Links

Times and Time Zones

All times are in EDT time to prevent confusion due to time zone crossing. See the ASQ4086 flight status page for this flight to view local times or setup timezone preferences in your user account.

Time Position Orientation Groundspeed Altitude Reporting Facility
EDT Latitude Longitude Course Direction KTS MPH feet Rate Location/Type
Sat 06:04:46 AM 42.8269 -85.5283 212° Southwest 175 201 2,600  Level Chicago Center
Sat 06:05:47 AM 42.7811 -85.5672 212° Southwest 192 221 5,100 2,231 Climbing Chicago Center
Sat 06:06:47 AM 42.7281 -85.6128 212° Southwest 216 249 7,100 2,200 Climbing Chicago Center
Sat 06:07:00 AM 42.5767 -85.8068 212° Southwest  Level Estimated
Sat 06:07:47 AM 42.6700 -85.6661 214° Southwest 243 280 9,500  Level Chicago Center
Sat 06:08:00 AM 42.5005 -85.8774 210° Southwest  Level Estimated
Sat 06:08:48 AM 42.6047 -85.7222 212° Southwest 267 307 10,900  Level Chicago Center
Sat 06:09:00 AM 42.4110 -85.9074 194° South  Level FlightAware
Sat 06:09:48 AM 42.5267 -85.7897 213° Southwest 320 368 11,800  Level Chicago Center
Sat 06:10:00 AM 42.3245 -85.9875 212° Southwest  Level Estimated
Sat 06:10:48 AM 42.4508 -85.8722 219° Southwest 346 398 13,500  Level Chicago Center
Sat 06:11:49 AM 42.3806 -85.9703 226° Southwest 358 412 14,700 1,289 Climbing Chicago Center
Sat 06:12:49 AM 42.3075 -86.0719 226° Southwest 373 429 16,100 1,500 Climbing Chicago Center
Sat 06:13:49 AM 42.2283 -86.1806 225° Southwest 378 435 17,700 1,289 Climbing Chicago Center
Sat 06:14:50 AM 42.1564 -86.2811 226° Southwest 375 432 18,700 1,091 Climbing Chicago Center
Sat 06:15:50 AM 42.0822 -86.3819 225° Southwest 380 437 19,900 1,190 Climbing Chicago Center
Sat 06:16:51 AM 42.0075 -86.4853 226° Southwest 388 447 21,100 1,190 Climbing Chicago Center
Sat 06:17:51 AM 41.9294 -86.5900 225° Southwest 396 456 22,300 1,200 Climbing Chicago Center
Sat 06:18:51 AM 41.8483 -86.7014 226° Southwest 400 460 23,500 1,140 Climbing Chicago Center
Sat 06:19:52 AM 41.7694 -86.8053 225° Southwest 401 461 24,600 1,140 Climbing Chicago Center
Sat 06:20:52 AM 41.6922 -86.9111 226° Southwest 399 459 25,800 1,140 Climbing Chicago Center
Sat 06:21:53 AM 41.6147 -87.0144 225° Southwest 396 456 26,900 1,140 Climbing Chicago Center
Sat 06:22:53 AM 41.5361 -87.1161 224° Southwest 396 456 28,100 1,150 Climbing Chicago Center
Sat 06:23:53 AM 41.4614 -87.2186 226° Southwest 387 445 29,200 1,140 Climbing Chicago Center
Sat 06:24:54 AM 41.3856 -87.3186 225° Southwest 385 443 30,400 1,190 Climbing Chicago Center
Sat 06:25:54 AM 41.3111 -87.4167 225° Southwest 379 436 31,600 1,150 Climbing Chicago Center
Sat 06:26:54 AM 41.2383 -87.5139 225° Southwest 373 429 32,700 1,140 Climbing Chicago Center
Sat 06:27:55 AM 41.1650 -87.6100 225° Southwest 370 426 33,900 1,140 Climbing Chicago Center
Sat 06:28:55 AM 41.0931 -87.7042 225° Southwest 363 418 35,000 900 Climbing Chicago Center
Sat 06:29:55 AM 41.0236 -87.7950 225° Southwest 353 406 35,700 496 Climbing Chicago Center
Sat 06:30:56 AM 40.9542 -87.8850 224° Southwest 349 402 36,000 149 Climbing Chicago Center
Sat 06:31:56 AM 40.8808 -87.9800 224° Southwest 362 417 36,000  Level Chicago Center
Sat 06:32:57 AM 40.8056 -88.0772 224° Southwest 375 432 36,000  Level Chicago Center
Sat 06:33:57 AM 40.7289 -88.1761 224° Southwest 384 442 36,000  Level Chicago Center
Sat 06:34:57 AM 40.6528 -88.2750 225° Southwest 385 443 36,000  Level Chicago Center
Sat 06:35:58 AM 40.5753 -88.3722 224° Southwest 387 445 36,000  Level Chicago Center
Sat 06:36:58 AM 40.4994 -88.4700 224° Southwest 385 443 36,000  Level Chicago Center
Sat 06:37:58 AM 40.4181 -88.5742 224° Southwest 383 441 36,000  Level Chicago Center
Sat 06:38:59 AM 40.3425 -88.6683 224° Southwest 376 433 36,000  Level Chicago Center
Sat 06:39:59 AM 40.2672 -88.7633 224° Southwest 374 430 36,000  Level Chicago Center
Sat 06:40:59 AM 40.1919 -88.8578 224° Southwest 374 430 36,000  Level Chicago Center
Sat 06:42:00 AM 40.1164 -88.9522 224° Southwest 376 433 36,000  Level Chicago Center
Sat 06:42:35 AM 40.0689 -89.0106 223° Southwest 377 434 36,000  Level Kansas Center
Sat 06:43:35 AM 39.9919 -89.1064 224° Southwest 379 436 36,000  Level Kansas Center
Sat 06:44:35 AM 39.9164 -89.1994 223° Southwest 376 433 36,000  Level Kansas Center
Sat 06:45:36 AM 39.8419 -89.2922 224° Southwest 369 425 36,000  Level Kansas Center
Sat 06:46:36 AM 39.7681 -89.3825 223° Southwest 366 421 36,000  Level Kansas Center
Sat 06:47:36 AM 39.6939 -89.4728 223° Southwest 365 420 36,000  Level Kansas Center
Sat 06:48:36 AM 39.6283 -89.5531 223° Southwest 367 422 36,000  Level Kansas Center
Sat 06:49:37 AM 39.5539 -89.6464 224° Southwest 371 427 36,000  Level Kansas Center
Sat 06:50:37 AM 39.4794 -89.7372 223° Southwest 370 426 36,000  Level Kansas Center
Sat 06:51:37 AM 39.4053 -89.8297 224° Southwest 371 427 36,000  Level Kansas Center
Sat 06:52:37 AM 39.3514 -89.9403 238° Southwest 364 419 36,000  Level Kansas Center
Sat 06:53:37 AM 39.2978 -90.0506 238° Southwest 365 420 36,000  Level Kansas Center
Sat 06:54:38 AM 39.2439 -90.1589 237° Southwest 363 418 36,000  Level Kansas Center
Sat 06:55:38 AM 39.1903 -90.2675 238° Southwest 362 417 36,000  Level Kansas Center
Sat 06:56:38 AM 39.1253 -90.3978 237° Southwest 362 417 36,000  Level Kansas Center
Sat 06:57:38 AM 39.0719 -90.5039 237° Southwest 359 413 36,000  Level Kansas Center
Sat 06:58:39 AM 39.0197 -90.6103 238° Southwest 356 410 36,000  Level Kansas Center
Sat 06:59:39 AM 38.9672 -90.7133 237° Southwest 351 404 36,000  Level Kansas Center
Sat 07:00:39 AM 38.9147 -90.8175 237° Southwest 351 404 36,000  Level Kansas Center
Sat 07:01:39 AM 38.8617 -90.9217 237° Southwest 351 404 36,000  Level Kansas Center
Sat 07:02:40 AM 38.8086 -91.0264 237° Southwest 352 405 36,000  Level Kansas Center
Sat 07:03:40 AM 38.7550 -91.1322 237° Southwest 354 407 36,000  Level Kansas Center
Sat 07:04:40 AM 38.7006 -91.2394 237° Southwest 358 412 36,000  Level Kansas Center
Sat 07:05:41 AM 38.6450 -91.3472 237° Southwest 362 417 36,000  Level Kansas Center
Sat 07:06:41 AM 38.5911 -91.4503 236° Southwest 358 412 36,000  Level Kansas Center
Sat 07:07:41 AM 38.5361 -91.5550 236° Southwest 355 409 36,000  Level Kansas Center
Sat 07:08:41 AM 38.4819 -91.6597 237° Southwest 353 406 36,000  Level Kansas Center
Sat 07:09:42 AM 38.4272 -91.7650 236° Southwest 355 409 36,000  Level Kansas Center
Sat 07:10:42 AM 38.3722 -91.8700 236° Southwest 355 409 36,000  Level Kansas Center
Sat 07:11:43 AM 38.3164 -91.9758 236° Southwest 356 410 36,000  Level Kansas Center
Sat 07:12:43 AM 38.2603 -92.0844 237° Southwest 367 422 36,000  Level Kansas Center
Sat 07:13:43 AM 38.2031 -92.1919 236° Southwest 369 425 36,000  Level Kansas Center
Sat 07:14:44 AM 38.1478 -92.2964 236° Southwest 368 423 36,000  Level Kansas Center
Sat 07:15:44 AM 38.0897 -92.4061 236° Southwest 373 429 36,000  Level Kansas Center
Sat 07:16:45 AM 38.0319 -92.5122 235° Southwest 370 426 36,000  Level Kansas Center
Sat 07:17:45 AM 37.9772 -92.6189 237° Southwest 366 421 36,000  Level Kansas Center
Sat 07:18:46 AM 37.9189 -92.7264 236° Southwest 368 423 36,000  Level Kansas Center
Sat 07:19:46 AM 37.8500 -92.8536 236° Southwest 369 425 36,000  Level Kansas Center
Sat 07:20:46 AM 37.7922 -92.9611 236° Southwest 369 425 36,000  Level Kansas Center
Sat 07:21:47 AM 37.7328 -93.0706 236° Southwest 372 428 36,000  Level Kansas Center
Sat 07:22:47 AM 37.6731 -93.1800 235° Southwest 376 433 36,000  Level Kansas Center
Sat 07:23:48 AM 37.6114 -93.2931 235° Southwest 386 444 36,000  Level Kansas Center
Sat 07:24:48 AM 37.5503 -93.4056 236° Southwest 388 447 36,000  Level Kansas Center
Sat 07:25:49 AM 37.4889 -93.5186 236° Southwest 389 448 36,000  Level Kansas Center
Sat 07:26:49 AM 37.4267 -93.6306 235° Southwest 390 449 36,000  Level Kansas Center
Sat 07:27:50 AM 37.3631 -93.7436 235° Southwest 393 452 36,000  Level Kansas Center
Sat 07:28:50 AM 37.3008 -93.8558 235° Southwest 392 451 36,000  Level Kansas Center
Sat 07:29:51 AM 37.2389 -93.9681 235° Southwest 390 449 36,000  Level Kansas Center
Sat 07:30:51 AM 37.1761 -94.0794 235° Southwest 389 448 36,000  Level Kansas Center
Sat 07:31:52 AM 37.1194 -94.1783 234° Southwest 389 448 36,000  Level Kansas Center
Sat 07:32:52 AM 37.0578 -94.2892 235° Southwest 387 445 36,000  Level Kansas Center
Sat 07:33:53 AM 36.9961 -94.3992 235° Southwest 386 444 36,000  Level Kansas Center
Sat 07:34:53 AM 36.9336 -94.5078 234° Southwest 384 442 36,000  Level Kansas Center
Sat 07:35:54 AM 36.8275 -94.5972 214° Southwest 386 444 36,000  Level Kansas Center
Sat 07:36:54 AM 36.7289 -94.6581 206° Southwest 391 450 36,000  Level Kansas Center
Sat 07:37:55 AM 36.6331 -94.7175 206° Southwest 386 444 36,000  Level Kansas Center
Sat 07:38:56 AM 36.5364 -94.7764 206° Southwest 384 442 36,000  Level Kansas Center
Sat 07:39:56 AM 36.4411 -94.8358 207° Southwest 382 440 36,000  Level Kansas Center
Sat 07:40:57 AM 36.3439 -94.8944 206° Southwest 383 441 36,000  Level Kansas Center
Sat 07:41:57 AM 36.2475 -94.9533 206° Southwest 383 441 36,000  Level Kansas Center
Sat 07:42:58 AM 36.1506 -95.0131 206° Southwest 384 442 36,000  Level Kansas Center
Sat 07:43:59 AM 36.0533 -95.0722 206° Southwest 385 443 36,000  Level Kansas Center
Sat 07:44:59 AM 35.9561 -95.1314 206° Southwest 385 443 36,000  Level Kansas Center
Sat 07:46:00 AM 35.8589 -95.1892 206° Southwest 384 442 36,000  Level Kansas Center
Sat 07:47:00 AM 35.7619 -95.2469 206° Southwest 385 443 36,000  Level Kansas Center
Sat 07:48:01 AM 35.6647 -95.3064 206° Southwest 388 447 36,000  Level Kansas Center
Sat 07:49:02 AM 35.5672 -95.3636 206° Southwest 387 445 36,000  Level Kansas Center
Sat 07:50:02 AM 35.4689 -95.4225 206° Southwest 389 448 36,000  Level Kansas Center
Sat 07:51:06 AM 35.3644 -95.4867 207° Southwest 384 442 36,000  Level Fort Center
Sat 07:52:06 AM 35.2672 -95.5472 207° Southwest 389 448 36,000  Level Fort Center
Sat 07:53:06 AM 35.1681 -95.6053 206° Southwest 389 448 36,000  Level Fort Center
Sat 07:54:06 AM 35.0708 -95.6633 206° Southwest 394 453 36,000  Level Fort Center
Sat 07:55:06 AM 34.9714 -95.7208 205° Southwest 394 453 36,000  Level Fort Center
Sat 07:56:06 AM 34.8700 -95.7761 204° Southwest 394 453 36,000  Level Fort Center
Sat 07:57:06 AM 34.7686 -95.8336 205° Southwest 399 459 36,000  Level Fort Center
Sat 07:58:06 AM 34.6692 -95.8911 205° Southwest 399 459 36,000  Level Fort Center
Sat 07:59:06 AM 34.5675 -95.9533 207° Southwest 399 459 36,000  Level Fort Center
Sat 08:00:06 AM 34.4681 -96.0106 205° Southwest 399 459 36,000  Level Fort Center
Sat 08:01:06 AM 34.3664 -96.0675 205° Southwest 399 459 36,000  Level Fort Center
Sat 08:02:06 AM 34.2628 -96.1294 206° Southwest 404 465 36,000  Level Fort Center
Sat 08:03:06 AM 34.1633 -96.1886 206° Southwest 404 465 36,000  Level Fort Center
Sat 08:04:06 AM 34.0678 -96.2425 205° Southwest 398 458 36,000  Level Fort Center
Sat 08:05:06 AM 33.9681 -96.2942 203° Southwest 392 451 36,000  Level Fort Center
Sat 08:06:06 AM 33.8492 -96.3131 188° South 415 478 36,000  Level Fort Center
Sat 08:07:06 AM 33.7367 -96.3219 184° South 415 478 36,000  Level Fort Center
Sat 08:08:06 AM 33.6197 -96.3333 185° South 417 480 36,000  Level Fort Center
Sat 08:09:06 AM 33.5156 -96.3422 184° South 424 488 36,000  Level Fort Center
Sat 08:10:06 AM 33.3989 -96.3561 186° South 424 488 36,000  Level Fort Center
Sat 08:11:06 AM 33.2800 -96.3622 182° South 424 488 36,000  Level Fort Center
Sat 08:12:06 AM 33.1611 -96.3736 185° South 424 488 36,000  Level Fort Center
Sat 08:13:06 AM 33.0400 -96.3825 184° South 424 488 36,000  Level Fort Center
Sat 08:14:06 AM 32.9064 -96.3964 185° South 429 494 36,000  Level Fort Center
Sat 08:15:06 AM 32.7875 -96.4053 184° South 429 494 36,000 -650 Level Fort Center
Sat 08:16:06 AM 32.6667 -96.4164 184° South 441 507 34,700 -1,450 Descending Fort Center
Sat 08:17:06 AM 32.5436 -96.4275 184° South 446 513 33,100 -1,600 Descending Fort Center
Sat 08:18:06 AM 32.4206 -96.4364 183° South 446 513 31,500 -1,550 Descending Fort Center
Sat 08:19:06 AM 32.2953 -96.4500 185° South 441 507 30,000 -1,250 Descending Fort Center
Sat 08:20:06 AM 32.1700 -96.4586 183° South 441 507 29,000 -500 Descending Fort Center
Sat 08:21:06 AM 32.0636 -96.4672 184° South 441 507 29,000  Level Fort Center
Sat 08:22:06 AM 31.9428 -96.4781 184° South 441 507 29,000  Level Fort Center
Sat 08:23:06 AM 31.8175 -96.4892 184° South 441 507 29,000  Level Fort Center
Sat 08:24:48 AM 31.6042 -96.4794 178° South 445 512 29,000  Level Houston Center
Sat 08:25:49 AM 31.4769 -96.4619 173° South 452 520 29,000 -295 Level Houston Center
Sat 08:26:50 AM 31.3567 -96.4053 158° South 462 532 28,400 -833 Descending Houston Center
Sat 08:27:37 AM 31.2625 -96.3519 154° Southeast 465 535 27,500 -1,161 Descending Houston Center
Sat 08:27:52 AM 31.2386 -96.3339 147° Southeast 472 543 27,200 -1,433 Descending Houston Center
Sat 08:28:44 AM 31.1322 -96.2714 153° Southeast 466 536 25,900 -1,723 Descending Houston Center
Sat 08:29:33 AM 31.0394 -96.2161 153° Southeast 466 536 24,300 -1,971 Descending Houston Center
Sat 08:29:54 AM 31.0050 -96.1936 151° Southeast 467 537 23,600 -2,459 Descending Houston Center
Sat 08:30:34 AM 30.9244 -96.1464 153° Southeast 449 517 21,800 -2,361 Descending Houston Center
Sat 08:30:55 AM 30.8947 -96.1269 151° Southeast 451 519 21,200 -2,200 Descending Houston Center
Sat 08:31:34 AM 30.8250 -96.0872 154° Southeast 419 482 19,600 -2,361 Descending Houston Center
Sat 08:31:56 AM 30.7892 -96.0636 150° Southeast 431 496 18,800 -2,328 Descending Houston Center
Sat 08:32:41 AM 30.7097 -96.0153 152° Southeast 411 473 17,000 -2,066 Descending Houston Center
Sat 08:32:57 AM 30.6922 -96.0058 155° Southeast 416 479 16,700 -2,400 Descending Houston Center
Sat 08:33:36 AM 30.6192 -95.9625 153° Southeast 396 456 14,800 -2,226 Descending Houston Center
Sat 08:33:59 AM 30.5975 -95.9475 149° Southeast 399 459 14,400 -2,060 Descending Houston Center
Sat 08:34:43 AM 30.5150 -95.8994 153° Southeast 388 447 12,500 -1,967 Descending Houston Center
Sat 08:35:00 AM 30.5019 -95.8889 145° Southeast 389 448 12,400 -492 Descending Houston Center
Sat 08:35:44 AM 30.4208 -95.8303 148° Southeast 381 438 12,000 -295 Descending Houston Center
Sat 08:36:01 AM 30.4144 -95.8244 142° Southeast 381 438 12,100 -590 Climbing Houston Center
Sat 08:36:45 AM 30.3447 -95.7497 137° Southeast 363 418 11,400 -1,082 Descending Houston Center
Sat 08:37:02 AM 30.3253 -95.7286 137° Southeast 368 423 11,000 -1,355 Descending Houston Center
Sat 08:37:47 AM 30.2733 -95.6783 140° Southeast 313 360 10,000 -1,377 Descending Houston Center
Sat 08:38:03 AM 30.2600 -95.6603 131° Southeast 329 379 9,600 -1,800 Descending Houston Center
Sat 08:38:47 AM 30.2125 -95.6106 138° Southeast 300 345 8,200 -1,770 Descending Houston Center
Sat 08:39:04 AM 30.1992 -95.5958 136° Southeast 306 352 7,800 -1,645 Descending Houston Center
Sat 08:39:49 AM 30.1503 -95.5478 140° Southeast 291 335 6,500 -1,645 Descending Houston Center
Sat 08:40:06 AM 30.1392 -95.5347 135° Southeast 292 336 6,100 -492 Descending Houston Center
Sat 08:40:50 AM 30.1061 -95.4758 123° Southeast 283 326 6,000 -98 Descending Houston Center
Sat 08:41:07 AM 30.1064 -95.4558 89° East 291 335 6,000 98 Level Houston Center
Sat 08:41:51 AM 30.1056 -95.3769 91° East 296 341 6,100 -98 Climbing Houston Center
Sat 08:42:08 AM 30.1058 -95.3631 89° East 289 333 5,900  Descending Houston Center
Sat 08:42:46 AM 30.1061 -95.2922 90° East 299 344 6,100 -98 Climbing Houston Center
Sat 08:43:09 AM 30.1056 -95.2667 91° East 295 339 5,800 -806 Descending Houston Center
Sat 08:43:53 AM 30.1067 -95.1858 89° East 296 341 5,200 -787 Descending Houston Center
Sat 08:44:10 AM 30.1061 -95.1708 92° East 297 342 5,000 -97 Descending Houston Center
Sat 08:44:55 AM 30.1061 -95.0894 90° East 289 333 5,100  Climbing Houston Center
Sat 08:45:11 AM 30.1056 -95.0775 93° East 292 336 5,000  Descending Houston Center
Sat 08:45:56 AM 30.1058 -94.9953 90° East 292 336 5,100  Climbing Houston Center
Sat 08:46:13 AM 30.1061 -94.9842 88° East 291 335 5,000 -590 Descending Houston Center
Sat 08:46:57 AM 30.0928 -94.9025 101° East 283 326 4,500 -689 Descending Houston Center
Sat 08:47:14 AM 30.0908 -94.8956 108° East 282 325 4,300 -492 Descending Houston Center
Sat 08:47:58 AM 30.0303 -94.8864 173° South 242 278 4,000 -393 Descending Houston Center
Sat 08:48:15 AM 30.0258 -94.8903 217° Southwest 247 284 3,900 98 Descending Houston Center
Sat 08:48:59 AM 30.0067 -94.9472 249° West 211 243 4,100 98 Climbing Houston Center
Sat 08:49:16 AM 30.0092 -94.9692 278° West 217 250 4,000  Descending Houston Center
Sat 08:50:00 AM 30.0136 -95.0211 276° West 214 246 4,100  Climbing Houston Center
Sat 08:50:18 AM 30.0122 -95.0367 264° West 213 245 4,000  Descending Houston Center
Sat 08:51:01 AM 30.0069 -95.0822 262° West 179 206 4,100 -98 Climbing Houston Center
Sat 08:51:19 AM 30.0075 -95.0956 273° West 192 221 3,900 -787 Descending Houston Center
Sat 08:52:02 AM 30.0058 -95.1403 268° West 182 209 3,300 -885 Descending Houston Center
Sat 08:52:20 AM 30.0075 -95.1531 279° West 183 211 3,000 -1,000 Descending Houston Center

Login

Don't have an account? Register now (free) for customized features, flight alerts, and more!